Latest Coastal Weather Observations for Robe Airport

IDV60701

Issued at 6:11 am EDT Tuesday 17 January 2017 (issued every 10 minutes, with the page automatically refreshed every 10 minutes)

About coastal observations | Map of coastal stations | Coastal observations for VIC | Marine services | Other Formats
Station Details ID: 026105 Name: ROBE AIRFIELD Lat: -37.18 Lon: 139.81 Height: 3.0 m
Data from the previous 72 hours. | See also: Recent months at Robe Airport
Date/Time
EDT
Temp
°C
Wind Pressure Rain since
9am
mm
Weather Cloud Vis
km
Sea
Height
m
Swell
Dir  Spd
kts
Gust
kts
hPa Trend Height
m
Period
s
Dir
17/06:00am 18.7 WSW 2 3 1007.3 - 0.0 - - - - - - -
17/05:30am 17.8 WSW 3 4 1007.3 - 0.0 - - - - - - -
17/05:00am 16.8 WSW 2 2 1007.4 - 0.0 - - - - - - -
17/04:30am 15.5 WSW 3 4 1007.5 - 0.0 - - - - - - -
17/04:00am 15.6 WSW 2 3 1007.5 - 0.0 - - - - - - -
17/03:30am 16.0 WSW 2 3 1007.6 - 0.0 - - - - - - -
17/03:00am 17.2 NE 2 5 1007.9 - 0.0 - - - - - - -
17/02:30am 16.8 NNE 2 3 1008.0 - 0.0 - - - - - - -
17/02:00am 16.4 N 3 7 1008.2 - 0.0 - - - - - - -
17/01:30am 16.7 CALM 0 0 1008.1 - 0.0 - - - - - - -
17/01:00am 16.6 CALM 0 0 1008.3 - 0.0 - - - - - - -
17/12:30am 16.0 CALM 0 0 1008.5 - 0.0 - - - - - - -
17/12:00am 16.5 CALM 0 0 1008.8 - 0.0 - - - - - - -
 
Date/Time
EDT
Temp
°C
Wind Pressure Rain since
9am
mm
Weather Cloud Vis
km
Sea
Height
m
Swell
Dir  Spd
kts
Gust
kts
hPa Trend Height
m
Period
s
Dir
16/11:30pm 16.3 CALM 0 0 1009.2 - 0.0 - - - - - - -
16/11:00pm 16.9 CALM 0 0 1009.3 - 0.0 - - - - - - -
16/10:30pm 18.1 CALM 0 0 1009.4 - 0.0 - - - - - - -
16/10:00pm 18.9 CALM 0 0 1009.4 - 0.0 - - - - - - -
16/09:30pm 20.0 NNW 2 3 1009.7 - 0.0 - - - - - - -
16/09:00pm 20.4 NNW 3 4 1009.6 - 0.0 - - - - - - -
16/08:30pm 23.6 NW 4 5 1009.8 - 0.0 - - - - - - -
16/08:00pm 24.9 NW 4 6 1009.7 - 0.0 - - - - - - -
16/07:30pm 26.1 NW 7 9 1009.8 - 0.0 - - - - - - -
16/07:00pm 26.3 NW 8 11 1009.7 - 0.0 - - - - - - -
16/06:30pm 26.6 NW 8 11 1009.7 - 0.0 - - - - - - -
16/06:00pm 27.0 NW 9 12 1009.7 - 0.0 - - - - - - -
16/05:30pm 27.6 NW 9 12 1010.1 - 0.0 - - - - - - -
16/05:00pm 27.6 NW 10 13 1010.4 - 0.0 - - - - - - -
16/04:30pm 26.9 NW 10 14 1010.8 - 0.0 - - - - - - -
16/04:00pm 28.4 NNW 12 17 1010.7 - 0.0 - - - - - - -
16/03:30pm 28.2 NNW 12 16 1011.0 - 0.0 - - - - - - -
16/03:00pm 27.8 NW 11 15 1011.3 - 0.0 - - - - - - -
16/02:30pm 27.1 NNW 11 16 1011.4 - 0.0 - - - - - - -
16/02:00pm 26.4 NW 10 13 1012.0 - 0.0 - - - - - - -
16/01:30pm 26.3 NW 9 13 1012.4 - 0.0 - - - - - - -
16/01:00pm 25.7 NW 9 13 1012.5 - 0.0 - - - - - - -
16/12:30pm 24.5 NW 9 13 1013.1 - 0.0 - - - - - - -
16/12:00pm 23.7 NW 8 11 1013.1 - 0.0 - - - - - - -
16/11:30am 24.1 NW 7 9 1013.4 - 0.0 - - - - - - -
16/11:00am 23.4 NW 7 10 1013.9 - 0.0 - - - - - - -
16/10:30am 22.2 NNE 5 8 1014.0 - 0.0 - - - - - - -
16/10:00am 20.2 NNE 5 7 1014.2 - 0.0 - - - - - - -
16/09:30am 18.5 NNE 5 7 1014.5 - 0.0 - - - - - - -
16/09:00am 16.5 NE 5 7 1014.6 - 0.0 - - - - - - -
16/08:30am 15.0 ENE 5 8 1014.6 - 0.0 - - - - - - -
16/08:00am 13.6 E 4 6 1014.7 - 0.0 - - - - - - -
16/07:30am 11.7 ESE 3 4 1014.6 - 0.0 - - - - - - -
16/07:00am 10.0 ESE 3 4 1014.6 - 0.0 - - - - - - -
16/06:30am 9.7 ESE 3 4 1014.5 - 0.0 - - - - - - -
16/06:00am 9.9 ESE 3 4 1014.4 - 0.0 - - - - - - -
16/05:30am 10.1 ESE 3 4 1014.4 - 0.0 - - - - - - -
16/05:00am 10.6 ESE 4 5 1014.4 - 0.0 - - - - - - -
16/04:30am 10.9 E 4 6 1014.5 - 0.0 - - - - - - -
16/04:00am 11.0 E 4 5 1014.7 - 0.0 - - - - - - -
16/03:30am 10.9 ESE 4 6 1014.8 - 0.0 - - - - - - -
16/03:00am 11.1 ESE 3 5 1015.0 - 0.0 - - - - - - -
16/02:30am 11.5 ESE 4 6 1015.1 - 0.0 - - - - - - -
16/02:00am 12.0 ESE 5 6 1015.3 - 0.0 - - - - - - -
16/01:30am 12.0 SSE 4 5 1015.4 - 0.0 - - - - - - -
16/01:00am 12.5 SSE 3 4 1015.7 - 0.0 - - - - - - -
16/12:30am 14.0 SSE 7 9 1016.1 - 0.0 - - - - - - -
16/12:00am 14.4 SSE 7 9 1016.4 - 0.0 - - - - - - -
 
Date/Time
EDT
Temp
°C
Wind Pressure Rain since
9am
mm
Weather Cloud Vis
km
Sea
Height
m
Swell
Dir  Spd
kts
Gust
kts
hPa Trend Height
m
Period
s
Dir
15/11:30pm 13.3 SSE 6 7 1016.9 - 0.0 - - - - - - -
15/11:00pm 13.8 SSE 7 9 1017.0 - 0.0 - - - - - - -
15/10:30pm 13.8 S 7 8 1017.1 - 0.0 - - - - - - -
15/10:00pm 14.0 S 6 7 1017.4 - 0.0 - - - - - - -
15/09:30pm 14.3 S 6 7 1017.5 - 0.0 - - - - - - -
15/09:00pm 15.4 S 6 8 1017.5 - 0.0 - - - - - - -
15/08:30pm 16.6 S 7 9 1017.5 - 0.0 - - - - - - -
15/08:00pm 17.5 S 8 10 1017.4 - 0.0 - - - - - - -
15/07:30pm 18.0 S 9 12 1017.3 - 0.0 - - - - - - -
15/07:00pm 18.2 S 10 14 1017.3 - 0.0 - - - - - - -
15/06:30pm 19.1 SSW 9 13 1017.5 - 0.0 - - - - - - -
15/06:00pm 18.9 S 9 13 1017.6 - 0.0 - - - - - - -
15/05:30pm 19.1 S 8 13 1017.9 - 0.0 - - - - - - -
15/05:00pm 19.3 SSW 8 13 1018.5 - 0.0 - - - - - - -
15/04:30pm 19.2 SSW 8 14 1018.7 - 0.0 - - - - - - -
15/04:00pm 19.6 SSW 9 17 1018.8 - 0.0 - - - - - - -
15/03:30pm 19.5 SSW 9 15 1019.1 - 0.0 - - - - - - -
15/03:00pm 19.4 SW 7 15 1019.4 - 0.0 - - - - - - -
15/02:30pm 19.4 WSW 8 12 1019.6 - 0.0 - - - - - - -
15/02:00pm 19.4 SW 7 13 1019.8 - 0.0 - - - - - - -
15/01:30pm 19.3 W 7 12 1020.0 - 0.0 - - - - - - -
15/01:00pm 19.3 SW 8 13 1020.2 - 0.0 - - - - - - -
15/12:30pm 18.7 WSW 6 10 1020.1 - 0.0 - - - - - - -
15/12:00pm 19.1 WNW 5 9 1020.2 - 0.0 - - - - - - -
15/11:30am 18.5 WSW 5 7 1020.3 - 0.0 - - - - - - -
15/11:00am 18.0 SW 5 8 1020.3 - 0.0 - - - - - - -
15/10:30am 17.9 SW 5 9 1020.5 - 0.0 - - - - - - -
15/10:00am 17.7 S 4 7 1020.4 - 0.0 - - - - - - -
15/09:30am 17.1 WNW 5 8 1020.5 - 0.0 - - - - - - -
15/09:00am 16.6 W 3 4 1020.4 - 0.0 - - - - - - -
15/08:30am 16.1 S 3 6 1020.0 - 0.0 - - - - - - -
15/08:00am 15.6 CALM 0 0 1019.6 - 0.0 - - - - - - -
15/07:30am 15.1 CALM 0 0 1019.2 - 0.0 - - - - - - -
15/07:00am 14.9 CALM 0 0 1019.0 - 0.0 - - - - - - -
15/06:30am 15.2 CALM 0 0 1018.8 - 0.0 - - - - - - -
15/06:00am 15.2 SSW 2 4 1018.4 - 0.0 - - - - - - -
15/05:30am 15.3 SSW 5 7 1018.4 - 0.0 - - - - - - -
15/05:00am 15.1 SE 3 5 1018.0 - 0.0 - - - - - - -
15/04:30am 15.0 S 2 3 1018.0 - 0.0 - - - - - - -
15/04:00am 15.2 S 4 6 1017.8 - 0.0 - - - - - - -
15/03:30am 15.2 S 4 5 1018.0 - 0.0 - - - - - - -
15/03:00am 15.3 SSW 5 9 1018.1 - 0.0 - - - - - - -
15/02:30am 15.5 SSW 6 10 1018.3 - 0.0 - - - - - - -
15/02:00am 15.6 S 7 10 1018.2 - 0.0 - - - - - - -
15/01:30am 15.7 S 9 13 1018.2 - 0.0 - - - - - - -
15/01:00am 15.8 SSW 9 13 1018.4 - 0.0 - - - - - - -
15/12:30am 15.8 SSW 7 11 1018.6 - 0.0 - - - - - - -
15/12:00am 15.9 SSW 9 13 1018.6 - 0.0 - - - - - - -
 
Date/Time
EDT
Temp
°C
Wind Pressure Rain since
9am
mm
Weather Cloud Vis
km
Sea
Height
m
Swell
Dir  Spd
kts
Gust
kts
hPa Trend Height
m
Period
s
Dir
14/11:30pm 16.0 SSW 10 14 1018.7 - 0.0 - - - - - - -
14/11:00pm 16.0 SSW 8 11 1018.6 - 0.0 - - - - - - -
14/10:30pm 15.6 SSW 9 13 1018.4 - 0.0 - - - - - - -
14/10:00pm 16.1 SSW 9 13 1018.3 - 0.0 - - - - - - -
14/09:30pm 15.3 SSW 7 10 1018.1 - 0.0 - - - - - - -
14/09:00pm 15.7 SSW 10 14 1017.9 - 0.0 - - - - - - -
14/08:30pm 16.5 SW 9 13 1017.9 - 0.0 - - - - - - -
14/08:00pm 16.7 SSW 8 11 1017.5 - 0.0 - - - - - - -
14/07:30pm 16.8 SSW 9 11 1017.1 - 0.0 - - - - - - -
14/07:00pm 18.1 SW 11 16 1016.9 - 0.0 - - - - - - -
14/06:30pm 17.7 SSW 11 16 1016.8 - 0.0 - - - - - - -
14/06:00pm 17.6 SSW 12 17 1016.7 - 0.0 - - - - - - -
14/05:30pm 18.8 SW 10 15 1016.7 - 0.0 - - - - - - -
14/05:00pm 17.3 SW 14 20 1016.8 - 0.0 - - - - - - -
14/04:30pm 18.5 SW 12 18 1016.6 - 0.0 - - - - - - -
14/04:00pm 18.3 SW 10 15 1016.5 - 0.0 - - - - - - -
14/03:30pm 17.6 SW 11 18 1016.2 - 0.0 - - - - - - -
14/03:00pm 18.4 SW 12 18 1015.7 - 0.0 - - - - - - -
14/02:30pm 18.4 SW 13 21 1015.5 - 0.0 - - - - - - -
14/02:00pm 18.1 SW 13 23 1015.3 - 0.0 - - - - - - -
14/01:30pm 17.6 SW 12 19 1015.2 - 0.0 - - - - - - -
14/01:00pm 18.8 WSW 12 19 1014.8 - 0.0 - - - - - - -
14/12:30pm 17.2 SW 14 22 1014.6 - 0.0 - - - - - - -
14/12:00pm 18.6 SW 13 19 1014.1 - 0.0 - - - - - - -
14/11:30am 18.0 SW 12 19 1013.6 - 0.0 - - - - - - -
14/11:00am 17.7 WSW 13 21 1013.0 - 0.0 - - - - - - -
14/10:30am 17.4 SW 15 25 1012.8 - 0.0 - - - - - - -
14/10:27am 17.7 WSW 15 25 1012.7 - 0.0 - - - - - - -
14/10:00am 16.9 SW 12 18 1012.6 - 0.0 - - - - - - -
14/09:30am 17.2 WSW 12 23 1012.2 - 3.6 - - - - - - -
14/09:00am 17.3 WSW 13 22 1012.0 - 3.6 - - - - - - -
14/08:30am 16.7 WSW 10 19 1011.6 - 3.6 - - - - - - -
14/08:00am 16.9 WSW 11 19 1011.1 - 3.6 - - - - - - -
14/07:30am 16.7 WSW 12 20 1010.6 - 3.6 - - - - - - -
14/07:00am 16.3 WSW 13 23 1010.1 - 3.6 - - - - - - -

Other Formats:

Comma delimited format used in spreadsheet applications
http://www.bom.gov.au/fwo/IDV60701/IDV60701.95816.axf

JavaScript Object Notation format (JSON) in row-major order
http://www.bom.gov.au/fwo/IDV60701/IDV60701.95816.json